Austin, Texas
Traffic Map
Current Weather Conditions
Austin, Texas
Broken Clouds
Broken Clouds
74°
Feels Like: 74°
Wind Chill: 74° Ceiling: 4600
Heat Index: 74° Visibility: 10mi
Dew Point: 55° Wind: 6mph
Humidity: 52% Direction: 80° (E)
Pressure: 30.19in Gusts: 0mph
Raw Report DataKATT 181851Z AUTO 08005KT 10SM SCT038 BKN046 23/13 A3019 RMK AO2 SLP216 T02330128
Traffic Incident Summary
Active as of:
Severity:
Category:
InformationThere was an issue retrieving the traffic information for this location. Please try a different location or try again shortly.
Advertisements
At Last! Intellicast now available for iPhone and Android